sensor_id;sensor_type;location;lat;lon;timestamp;temperature;humidity
12819;DHT22;6474;53.474;9.894;2023-03-23T00:01:32;11.40;84.60
12819;DHT22;6474;53.474;9.894;2023-03-23T00:04:03;11.30;84.50
12819;DHT22;6474;53.474;9.894;2023-03-23T00:06:31;11.30;84.60
12819;DHT22;6474;53.474;9.894;2023-03-23T00:08:59;11.30;84.70
12819;DHT22;6474;53.474;9.894;2023-03-23T00:11:29;11.30;84.70
12819;DHT22;6474;53.474;9.894;2023-03-23T00:13:57;11.30;84.80
12819;DHT22;6474;53.474;9.894;2023-03-23T00:16:28;11.30;84.80
12819;DHT22;6474;53.474;9.894;2023-03-23T00:19:00;11.20;84.70
12819;DHT22;6474;53.474;9.894;2023-03-23T00:21:31;11.20;84.80
12819;DHT22;6474;53.474;9.894;2023-03-23T00:24:03;11.20;84.80
12819;DHT22;6474;53.474;9.894;2023-03-23T00:26:32;11.20;84.80
12819;DHT22;6474;53.474;9.894;2023-03-23T00:29:01;11.10;84.80
12819;DHT22;6474;53.474;9.894;2023-03-23T00:31:28;11.20;84.90
12819;DHT22;6474;53.474;9.894;2023-03-23T00:34:01;11.20;84.90
12819;DHT22;6474;53.474;9.894;2023-03-23T00:36:31;11.20;84.90
12819;DHT22;6474;53.474;9.894;2023-03-23T00:39:00;11.10;84.90
12819;DHT22;6474;53.474;9.894;2023-03-23T00:41:27;11.10;84.90
12819;DHT22;6474;53.474;9.894;2023-03-23T00:43:55;11.10;85.00
12819;DHT22;6474;53.474;9.894;2023-03-23T00:46:24;11.10;85.00
12819;DHT22;6474;53.474;9.894;2023-03-23T00:48:51;11.10;85.00
12819;DHT22;6474;53.474;9.894;2023-03-23T00:51:18;11.10;85.20
12819;DHT22;6474;53.474;9.894;2023-03-23T00:53:46;11.10;85.00
12819;DHT22;6474;53.474;9.894;2023-03-23T00:56:13;11.10;85.00
12819;DHT22;6474;53.474;9.894;2023-03-23T00:58:41;11.10;85.10
12819;DHT22;6474;53.474;9.894;2023-03-23T01:01:08;11.10;85.00
12819;DHT22;6474;53.474;9.894;2023-03-23T01:03:35;11.10;85.10
12819;DHT22;6474;53.474;9.894;2023-03-23T01:06:07;11.10;85.10
12819;DHT22;6474;53.474;9.894;2023-03-23T01:08:38;11.10;85.00
12819;DHT22;6474;53.474;9.894;2023-03-23T01:11:14;11.10;85.00
12819;DHT22;6474;53.474;9.894;2023-03-23T01:13:41;11.10;85.00
12819;DHT22;6474;53.474;9.894;2023-03-23T01:16:09;11.10;85.00
12819;DHT22;6474;53.474;9.894;2023-03-23T01:18:36;11.10;85.10
12819;DHT22;6474;53.474;9.894;2023-03-23T01:21:05;11.10;85.10
12819;DHT22;6474;53.474;9.894;2023-03-23T01:23:32;11.10;85.20
12819;DHT22;6474;53.474;9.894;2023-03-23T01:26:03;11.10;85.20
12819;DHT22;6474;53.474;9.894;2023-03-23T01:28:31;11.10;85.20
12819;DHT22;6474;53.474;9.894;2023-03-23T01:31:02;11.10;85.20
12819;DHT22;6474;53.474;9.894;2023-03-23T01:33:31;11.10;85.20
12819;DHT22;6474;53.474;9.894;2023-03-23T01:36:02;11.10;85.20
12819;DHT22;6474;53.474;9.894;2023-03-23T01:38:29;11.10;85.30
12819;DHT22;6474;53.474;9.894;2023-03-23T01:40:56;11.10;85.30
12819;DHT22;6474;53.474;9.894;2023-03-23T01:43:23;11.10;85.30
12819;DHT22;6474;53.474;9.894;2023-03-23T01:45:51;11.10;85.30
12819;DHT22;6474;53.474;9.894;2023-03-23T01:48:22;11.10;85.30
12819;DHT22;6474;53.474;9.894;2023-03-23T01:50:55;11.10;85.40
12819;DHT22;6474;53.474;9.894;2023-03-23T01:53:26;11.10;85.40
12819;DHT22;6474;53.474;9.894;2023-03-23T01:55:55;11.10;85.40
12819;DHT22;6474;53.474;9.894;2023-03-23T01:58:25;11.10;85.30
12819;DHT22;6474;53.474;9.894;2023-03-23T02:00:55;11.10;85.30
12819;DHT22;6474;53.474;9.894;2023-03-23T02:03:25;11.10;85.30
12819;DHT22;6474;53.474;9.894;2023-03-23T02:05:51;11.10;85.30
12819;DHT22;6474;53.474;9.894;2023-03-23T02:08:19;11.10;85.30
12819;DHT22;6474;53.474;9.894;2023-03-23T02:10:46;11.10;85.30
12819;DHT22;6474;53.474;9.894;2023-03-23T02:13:13;11.20;85.40
12819;DHT22;6474;53.474;9.894;2023-03-23T02:15:47;11.10;85.40
12819;DHT22;6474;53.474;9.894;2023-03-23T02:18:37;11.10;85.40
12819;DHT22;6474;53.474;9.894;2023-03-23T02:21:59;11.10;85.30
12819;DHT22;6474;53.474;9.894;2023-03-23T02:24:51;11.20;85.40
12819;DHT22;6474;53.474;9.894;2023-03-23T02:27:28;11.20;85.40
12819;DHT22;6474;53.474;9.894;2023-03-23T02:30:13;11.10;85.30
12819;DHT22;6474;53.474;9.894;2023-03-23T02:35:48;11.20;85.40
12819;DHT22;6474;53.474;9.894;2023-03-23T02:38:19;11.10;85.40
12819;DHT22;6474;53.474;9.894;2023-03-23T02:40:49;11.20;85.40
12819;DHT22;6474;53.474;9.894;2023-03-23T02:43:19;11.20;85.40
12819;DHT22;6474;53.474;9.894;2023-03-23T02:45:46;11.20;85.40
12819;DHT22;6474;53.474;9.894;2023-03-23T02:48:16;11.20;85.50
12819;DHT22;6474;53.474;9.894;2023-03-23T02:50:49;11.20;85.50
12819;DHT22;6474;53.474;9.894;2023-03-23T02:53:21;11.20;85.50
12819;DHT22;6474;53.474;9.894;2023-03-23T02:55:50;11.20;85.50
12819;DHT22;6474;53.474;9.894;2023-03-23T02:58:18;11.20;85.60
12819;DHT22;6474;53.474;9.894;2023-03-23T03:00:46;11.20;85.60
12819;DHT22;6474;53.474;9.894;2023-03-23T03:03:16;11.20;85.60
12819;DHT22;6474;53.474;9.894;2023-03-23T03:05:54;11.20;85.60
12819;DHT22;6474;53.474;9.894;2023-03-23T03:08:31;11.20;85.60
12819;DHT22;6474;53.474;9.894;2023-03-23T03:11:04;11.30;85.70
12819;DHT22;6474;53.474;9.894;2023-03-23T03:13:41;11.30;85.70
12819;DHT22;6474;53.474;9.894;2023-03-23T03:16:16;11.30;85.70
12819;DHT22;6474;53.474;9.894;2023-03-23T03:18:49;11.30;85.80
12819;DHT22;6474;53.474;9.894;2023-03-23T03:21:20;11.30;85.70
12819;DHT22;6474;53.474;9.894;2023-03-23T03:23:53;11.30;85.70
12819;DHT22;6474;53.474;9.894;2023-03-23T03:26:22;11.30;85.70
12819;DHT22;6474;53.474;9.894;2023-03-23T03:28:52;11.30;85.60
12819;DHT22;6474;53.474;9.894;2023-03-23T03:31:21;11.30;85.60
12819;DHT22;6474;53.474;9.894;2023-03-23T03:33:49;11.30;85.60
12819;DHT22;6474;53.474;9.894;2023-03-23T03:36:20;11.30;85.60
12819;DHT22;6474;53.474;9.894;2023-03-23T03:38:50;11.30;85.60
12819;DHT22;6474;53.474;9.894;2023-03-23T03:41:18;11.30;85.60
12819;DHT22;6474;53.474;9.894;2023-03-23T03:43:45;11.30;85.70
12819;DHT22;6474;53.474;9.894;2023-03-23T03:46:12;11.20;85.60
12819;DHT22;6474;53.474;9.894;2023-03-23T03:48:39;11.30;85.80
12819;DHT22;6474;53.474;9.894;2023-03-23T03:51:06;11.20;85.70
12819;DHT22;6474;53.474;9.894;2023-03-23T03:53:35;11.20;85.70
12819;DHT22;6474;53.474;9.894;2023-03-23T03:56:02;11.20;85.70
12819;DHT22;6474;53.474;9.894;2023-03-23T03:58:30;11.20;85.70
12819;DHT22;6474;53.474;9.894;2023-03-23T04:00:58;11.20;85.70
12819;DHT22;6474;53.474;9.894;2023-03-23T04:03:26;11.20;85.60
12819;DHT22;6474;53.474;9.894;2023-03-23T04:05:53;11.20;85.60
12819;DHT22;6474;53.474;9.894;2023-03-23T04:08:21;11.20;85.70
12819;DHT22;6474;53.474;9.894;2023-03-23T04:10:50;11.20;85.70
12819;DHT22;6474;53.474;9.894;2023-03-23T04:13:17;11.10;85.60
12819;DHT22;6474;53.474;9.894;2023-03-23T04:15:44;11.20;85.70
12819;DHT22;6474;53.474;9.894;2023-03-23T04:18:12;11.10;85.70
12819;DHT22;6474;53.474;9.894;2023-03-23T04:20:40;11.20;85.80
12819;DHT22;6474;53.474;9.894;2023-03-23T04:23:08;11.20;85.80
12819;DHT22;6474;53.474;9.894;2023-03-23T04:25:34;11.20;85.80
12819;DHT22;6474;53.474;9.894;2023-03-23T04:28:03;11.20;85.80
12819;DHT22;6474;53.474;9.894;2023-03-23T04:30:30;11.20;85.80
12819;DHT22;6474;53.474;9.894;2023-03-23T04:32:57;11.20;85.90
12819;DHT22;6474;53.474;9.894;2023-03-23T04:35:26;11.20;85.90
12819;DHT22;6474;53.474;9.894;2023-03-23T04:37:54;11.20;85.90
12819;DHT22;6474;53.474;9.894;2023-03-23T04:40:22;11.20;85.70
12819;DHT22;6474;53.474;9.894;2023-03-23T04:42:49;11.30;85.90
12819;DHT22;6474;53.474;9.894;2023-03-23T04:45:20;11.30;85.90
12819;DHT22;6474;53.474;9.894;2023-03-23T04:47:48;11.30;85.90
12819;DHT22;6474;53.474;9.894;2023-03-23T04:50:20;11.30;85.80
12819;DHT22;6474;53.474;9.894;2023-03-23T04:52:49;11.30;85.80
12819;DHT22;6474;53.474;9.894;2023-03-23T04:55:17;11.30;85.80
12819;DHT22;6474;53.474;9.894;2023-03-23T04:57:44;11.30;85.70
12819;DHT22;6474;53.474;9.894;2023-03-23T05:00:12;11.30;85.70
12819;DHT22;6474;53.474;9.894;2023-03-23T05:02:43;11.30;85.80
12819;DHT22;6474;53.474;9.894;2023-03-23T05:05:13;11.30;85.80
12819;DHT22;6474;53.474;9.894;2023-03-23T05:07:41;11.30;85.70
12819;DHT22;6474;53.474;9.894;2023-03-23T05:10:09;11.30;85.70
12819;DHT22;6474;53.474;9.894;2023-03-23T05:12:37;11.30;85.70
12819;DHT22;6474;53.474;9.894;2023-03-23T05:15:05;11.30;85.70
12819;DHT22;6474;53.474;9.894;2023-03-23T05:17:32;11.30;85.80
12819;DHT22;6474;53.474;9.894;2023-03-23T05:20:01;11.20;85.70
12819;DHT22;6474;53.474;9.894;2023-03-23T05:22:30;11.20;85.80
12819;DHT22;6474;53.474;9.894;2023-03-23T05:24:57;11.20;85.90
12819;DHT22;6474;53.474;9.894;2023-03-23T05:27:24;11.20;85.80
12819;DHT22;6474;53.474;9.894;2023-03-23T05:29:53;11.10;85.80
12819;DHT22;6474;53.474;9.894;2023-03-23T05:32:20;11.20;85.90
12819;DHT22;6474;53.474;9.894;2023-03-23T05:34:55;11.10;85.80
12819;DHT22;6474;53.474;9.894;2023-03-23T05:37:23;11.20;86.00
12819;DHT22;6474;53.474;9.894;2023-03-23T05:39:52;11.10;85.90
12819;DHT22;6474;53.474;9.894;2023-03-23T05:42:21;11.10;85.80
12819;DHT22;6474;53.474;9.894;2023-03-23T05:44:48;11.20;86.00
12819;DHT22;6474;53.474;9.894;2023-03-23T05:47:15;11.10;85.90
12819;DHT22;6474;53.474;9.894;2023-03-23T05:49:41;11.10;85.80
12819;DHT22;6474;53.474;9.894;2023-03-23T05:52:08;11.10;85.80
12819;DHT22;6474;53.474;9.894;2023-03-23T05:54:37;11.20;85.90
12819;DHT22;6474;53.474;9.894;2023-03-23T05:57:04;11.20;85.90
12819;DHT22;6474;53.474;9.894;2023-03-23T05:59:31;11.20;85.90
12819;DHT22;6474;53.474;9.894;2023-03-23T06:01:59;11.20;85.80
12819;DHT22;6474;53.474;9.894;2023-03-23T06:04:26;11.20;85.70
12819;DHT22;6474;53.474;9.894;2023-03-23T06:06:53;11.20;85.80
12819;DHT22;6474;53.474;9.894;2023-03-23T06:09:20;11.10;85.60
12819;DHT22;6474;53.474;9.894;2023-03-23T06:11:50;11.10;85.60
12819;DHT22;6474;53.474;9.894;2023-03-23T06:14:17;11.10;85.60
12819;DHT22;6474;53.474;9.894;2023-03-23T06:16:44;11.10;85.70
12819;DHT22;6474;53.474;9.894;2023-03-23T06:19:11;11.00;85.60
12819;DHT22;6474;53.474;9.894;2023-03-23T06:21:38;11.00;85.70
12819;DHT22;6474;53.474;9.894;2023-03-23T06:24:05;11.00;85.70
12819;DHT22;6474;53.474;9.894;2023-03-23T06:26:35;11.00;85.70
12819;DHT22;6474;53.474;9.894;2023-03-23T06:29:03;11.00;85.80
12819;DHT22;6474;53.474;9.894;2023-03-23T06:31:37;11.00;85.80
12819;DHT22;6474;53.474;9.894;2023-03-23T06:34:04;11.00;85.80
12819;DHT22;6474;53.474;9.894;2023-03-23T06:36:31;11.00;85.90
12819;DHT22;6474;53.474;9.894;2023-03-23T06:38:58;11.10;86.10
12819;DHT22;6474;53.474;9.894;2023-03-23T06:41:25;11.10;86.20
12819;DHT22;6474;53.474;9.894;2023-03-23T06:43:52;11.10;86.20
12819;DHT22;6474;53.474;9.894;2023-03-23T06:46:20;11.10;86.20
12819;DHT22;6474;53.474;9.894;2023-03-23T06:48:47;11.20;86.20
12819;DHT22;6474;53.474;9.894;2023-03-23T06:51:15;11.30;86.30
12819;DHT22;6474;53.474;9.894;2023-03-23T06:53:42;11.30;86.20
12819;DHT22;6474;53.474;9.894;2023-03-23T06:56:09;11.40;86.30
12819;DHT22;6474;53.474;9.894;2023-03-23T06:58:37;11.50;86.30
12819;DHT22;6474;53.474;9.894;2023-03-23T07:01:04;11.50;86.40
12819;DHT22;6474;53.474;9.894;2023-03-23T07:03:33;11.70;86.40
12819;DHT22;6474;53.474;9.894;2023-03-23T07:06:01;11.80;86.30
12819;DHT22;6474;53.474;9.894;2023-03-23T07:08:28;11.80;86.20
12819;DHT22;6474;53.474;9.894;2023-03-23T07:10:55;11.90;86.20
12819;DHT22;6474;53.474;9.894;2023-03-23T07:13:22;11.90;86.10
12819;DHT22;6474;53.474;9.894;2023-03-23T07:15:49;12.00;86.20
12819;DHT22;6474;53.474;9.894;2023-03-23T07:18:16;12.10;86.20
12819;DHT22;6474;53.474;9.894;2023-03-23T07:20:47;12.10;86.20
12819;DHT22;6474;53.474;9.894;2023-03-23T07:23:13;12.20;86.40
12819;DHT22;6474;53.474;9.894;2023-03-23T07:25:40;12.20;86.40
12819;DHT22;6474;53.474;9.894;2023-03-23T07:28:07;12.30;86.40
12819;DHT22;6474;53.474;9.894;2023-03-23T07:30:34;12.30;86.30
12819;DHT22;6474;53.474;9.894;2023-03-23T07:33:04;12.40;86.40
12819;DHT22;6474;53.474;9.894;2023-03-23T07:35:31;12.40;86.50
12819;DHT22;6474;53.474;9.894;2023-03-23T07:38:00;12.50;86.50
12819;DHT22;6474;53.474;9.894;2023-03-23T07:40:27;12.50;86.60
12819;DHT22;6474;53.474;9.894;2023-03-23T07:42:56;12.60;86.70
12819;DHT22;6474;53.474;9.894;2023-03-23T07:45:24;12.60;86.70
12819;DHT22;6474;53.474;9.894;2023-03-23T07:47:50;12.70;86.70
12819;DHT22;6474;53.474;9.894;2023-03-23T07:50:18;12.70;86.50
12819;DHT22;6474;53.474;9.894;2023-03-23T07:52:48;12.70;86.50
12819;DHT22;6474;53.474;9.894;2023-03-23T07:55:16;12.70;86.60
12819;DHT22;6474;53.474;9.894;2023-03-23T07:57:44;12.80;86.70
12819;DHT22;6474;53.474;9.894;2023-03-23T08:00:12;12.80;86.70
12819;DHT22;6474;53.474;9.894;2023-03-23T08:02:44;12.80;86.80
12819;DHT22;6474;53.474;9.894;2023-03-23T08:05:12;12.90;86.90
12819;DHT22;6474;53.474;9.894;2023-03-23T08:07:39;12.90;86.90
12819;DHT22;6474;53.474;9.894;2023-03-23T08:10:08;12.90;86.80
12819;DHT22;6474;53.474;9.894;2023-03-23T08:12:39;12.90;86.80
12819;DHT22;6474;53.474;9.894;2023-03-23T08:15:07;12.80;86.60
12819;DHT22;6474;53.474;9.894;2023-03-23T08:17:35;12.80;86.60
12819;DHT22;6474;53.474;9.894;2023-03-23T08:20:03;12.80;86.70
12819;DHT22;6474;53.474;9.894;2023-03-23T08:22:36;12.80;87.00
12819;DHT22;6474;53.474;9.894;2023-03-23T08:25:05;12.70;86.90
12819;DHT22;6474;53.474;9.894;2023-03-23T08:27:32;12.70;86.90
12819;DHT22;6474;53.474;9.894;2023-03-23T08:30:02;12.70;86.90
12819;DHT22;6474;53.474;9.894;2023-03-23T08:32:30;12.70;86.90
12819;DHT22;6474;53.474;9.894;2023-03-23T08:34:58;12.70;86.80
12819;DHT22;6474;53.474;9.894;2023-03-23T08:37:25;12.60;86.70
12819;DHT22;6474;53.474;9.894;2023-03-23T08:39:52;12.60;86.80
12819;DHT22;6474;53.474;9.894;2023-03-23T08:42:19;12.60;86.90
12819;DHT22;6474;53.474;9.894;2023-03-23T08:44:46;12.60;87.00
12819;DHT22;6474;53.474;9.894;2023-03-23T08:47:14;12.60;87.20
12819;DHT22;6474;53.474;9.894;2023-03-23T08:49:41;12.70;87.40
12819;DHT22;6474;53.474;9.894;2023-03-23T08:52:08;12.70;87.30
12819;DHT22;6474;53.474;9.894;2023-03-23T08:54:35;12.80;87.40
12819;DHT22;6474;53.474;9.894;2023-03-23T08:57:03;12.80;87.40
12819;DHT22;6474;53.474;9.894;2023-03-23T08:59:30;12.90;87.90
12819;DHT22;6474;53.474;9.894;2023-03-23T09:01:57;12.90;87.40
12819;DHT22;6474;53.474;9.894;2023-03-23T09:04:25;13.00;88.30
12819;DHT22;6474;53.474;9.894;2023-03-23T09:06:55;13.00;87.60
12819;DHT22;6474;53.474;9.894;2023-03-23T09:09:22;13.10;87.70
12819;DHT22;6474;53.474;9.894;2023-03-23T09:11:49;13.10;87.60
12819;DHT22;6474;53.474;9.894;2023-03-23T09:14:16;13.20;87.70
12819;DHT22;6474;53.474;9.894;2023-03-23T09:16:43;13.20;87.50
12819;DHT22;6474;53.474;9.894;2023-03-23T09:19:10;13.20;87.40
12819;DHT22;6474;53.474;9.894;2023-03-23T09:21:39;13.20;87.40
12819;DHT22;6474;53.474;9.894;2023-03-23T09:24:06;13.10;87.90
12819;DHT22;6474;53.474;9.894;2023-03-23T09:26:32;13.10;87.10
12819;DHT22;6474;53.474;9.894;2023-03-23T09:28:59;13.10;87.10
12819;DHT22;6474;53.474;9.894;2023-03-23T09:31:26;13.00;87.00
12819;DHT22;6474;53.474;9.894;2023-03-23T09:33:53;12.90;87.00
12819;DHT22;6474;53.474;9.894;2023-03-23T09:36:22;12.90;87.10
12819;DHT22;6474;53.474;9.894;2023-03-23T09:38:52;12.80;87.10
12819;DHT22;6474;53.474;9.894;2023-03-23T09:41:45;12.80;87.20
12819;DHT22;6474;53.474;9.894;2023-03-23T09:44:22;12.80;87.30
12819;DHT22;6474;53.474;9.894;2023-03-23T09:46:56;12.80;87.30
12819;DHT22;6474;53.474;9.894;2023-03-23T09:49:28;12.80;87.30
12819;DHT22;6474;53.474;9.894;2023-03-23T09:51:59;12.90;87.40
12819;DHT22;6474;53.474;9.894;2023-03-23T09:54:34;12.90;87.30
12819;DHT22;6474;53.474;9.894;2023-03-23T09:57:04;13.00;87.20
12819;DHT22;6474;53.474;9.894;2023-03-23T09:59:39;13.00;87.20
12819;DHT22;6474;53.474;9.894;2023-03-23T10:02:14;13.10;87.30
12819;DHT22;6474;53.474;9.894;2023-03-23T10:04:45;13.20;87.30
12819;DHT22;6474;53.474;9.894;2023-03-23T10:07:14;13.20;87.20
12819;DHT22;6474;53.474;9.894;2023-03-23T10:09:45;13.30;87.20
12819;DHT22;6474;53.474;9.894;2023-03-23T10:12:21;13.30;87.10
12819;DHT22;6474;53.474;9.894;2023-03-23T10:15:08;13.40;87.20
12819;DHT22;6474;53.474;9.894;2023-03-23T10:17:41;13.40;87.20
12819;DHT22;6474;53.474;9.894;2023-03-23T10:20:23;13.40;87.10
12819;DHT22;6474;53.474;9.894;2023-03-23T10:23:00;13.60;87.20
12819;DHT22;6474;53.474;9.894;2023-03-23T10:25:34;13.80;87.40
12819;DHT22;6474;53.474;9.894;2023-03-23T10:28:08;13.90;87.30
12819;DHT22;6474;53.474;9.894;2023-03-23T10:30:42;14.10;87.10
12819;DHT22;6474;53.474;9.894;2023-03-23T10:33:16;14.10;86.90
12819;DHT22;6474;53.474;9.894;2023-03-23T10:35:48;14.10;86.90
12819;DHT22;6474;53.474;9.894;2023-03-23T10:38:19;14.20;87.00
12819;DHT22;6474;53.474;9.894;2023-03-23T10:40:50;14.10;86.90
12819;DHT22;6474;53.474;9.894;2023-03-23T10:43:19;14.10;86.90
12819;DHT22;6474;53.474;9.894;2023-03-23T10:45:53;14.10;86.90
12819;DHT22;6474;53.474;9.894;2023-03-23T10:48:25;14.10;86.90
12819;DHT22;6474;53.474;9.894;2023-03-23T10:50:55;14.00;87.00
12819;DHT22;6474;53.474;9.894;2023-03-23T10:53:33;14.00;87.10
12819;DHT22;6474;53.474;9.894;2023-03-23T10:56:26;14.00;87.20
12819;DHT22;6474;53.474;9.894;2023-03-23T10:59:21;14.00;87.20
12819;DHT22;6474;53.474;9.894;2023-03-23T11:02:10;14.00;87.30
12819;DHT22;6474;53.474;9.894;2023-03-23T11:04:56;14.00;87.30
12819;DHT22;6474;53.474;9.894;2023-03-23T11:07:27;14.00;87.30
12819;DHT22;6474;53.474;9.894;2023-03-23T11:09:56;14.10;87.30
12819;DHT22;6474;53.474;9.894;2023-03-23T11:12:25;14.20;87.40
12819;DHT22;6474;53.474;9.894;2023-03-23T11:14:52;14.20;87.30
12819;DHT22;6474;53.474;9.894;2023-03-23T11:17:22;14.30;87.20
12819;DHT22;6474;53.474;9.894;2023-03-23T11:19:50;14.30;87.10
12819;DHT22;6474;53.474;9.894;2023-03-23T11:22:24;14.20;87.00
12819;DHT22;6474;53.474;9.894;2023-03-23T11:24:53;14.10;86.90
12819;DHT22;6474;53.474;9.894;2023-03-23T11:27:21;14.10;87.20
12819;DHT22;6474;53.474;9.894;2023-03-23T11:29:52;14.20;87.40
12819;DHT22;6474;53.474;9.894;2023-03-23T11:32:24;14.20;87.40
12819;DHT22;6474;53.474;9.894;2023-03-23T11:34:58;14.30;87.50
12819;DHT22;6474;53.474;9.894;2023-03-23T11:37:29;14.40;87.30
12819;DHT22;6474;53.474;9.894;2023-03-23T11:40:00;14.50;87.20
12819;DHT22;6474;53.474;9.894;2023-03-23T11:42:36;14.50;87.20
12819;DHT22;6474;53.474;9.894;2023-03-23T11:45:14;14.60;87.30
12819;DHT22;6474;53.474;9.894;2023-03-23T11:47:50;14.60;87.30
12819;DHT22;6474;53.474;9.894;2023-03-23T11:50:21;14.60;87.30
12819;DHT22;6474;53.474;9.894;2023-03-23T11:52:52;14.60;87.30
12819;DHT22;6474;53.474;9.894;2023-03-23T11:55:23;14.50;87.20
12819;DHT22;6474;53.474;9.894;2023-03-23T11:57:52;14.40;87.00
12819;DHT22;6474;53.474;9.894;2023-03-23T12:00:23;14.30;86.90
12819;DHT22;6474;53.474;9.894;2023-03-23T12:03:25;14.20;86.90
12819;DHT22;6474;53.474;9.894;2023-03-23T12:06:01;14.00;86.80
12819;DHT22;6474;53.474;9.894;2023-03-23T12:11:26;14.00;87.20
12819;DHT22;6474;53.474;9.894;2023-03-23T12:14:09;14.00;87.30
12819;DHT22;6474;53.474;9.894;2023-03-23T12:16:48;14.00;87.30
12819;DHT22;6474;53.474;9.894;2023-03-23T12:19:21;14.00;87.10
12819;DHT22;6474;53.474;9.894;2023-03-23T12:21:56;14.00;87.00
12819;DHT22;6474;53.474;9.894;2023-03-23T12:24:39;13.90;86.70
12819;DHT22;6474;53.474;9.894;2023-03-23T12:27:12;13.80;86.60
12819;DHT22;6474;53.474;9.894;2023-03-23T12:29:58;13.70;86.70
12819;DHT22;6474;53.474;9.894;2023-03-23T12:32:40;13.70;87.00
12819;DHT22;6474;53.474;9.894;2023-03-23T12:35:21;13.70;87.40
12819;DHT22;6474;53.474;9.894;2023-03-23T12:38:00;13.90;87.60
12819;DHT22;6474;53.474;9.894;2023-03-23T12:40:51;14.00;87.70
12819;DHT22;6474;53.474;9.894;2023-03-23T12:43:26;14.20;87.70
12819;DHT22;6474;53.474;9.894;2023-03-23T12:46:03;14.40;87.80
12819;DHT22;6474;53.474;9.894;2023-03-23T12:48:35;14.50;87.40
12819;DHT22;6474;53.474;9.894;2023-03-23T12:51:12;14.60;87.30
12819;DHT22;6474;53.474;9.894;2023-03-23T12:53:47;14.60;87.30
12819;DHT22;6474;53.474;9.894;2023-03-23T12:56:21;14.60;87.30
12819;DHT22;6474;53.474;9.894;2023-03-23T12:58:51;14.60;87.30
12819;DHT22;6474;53.474;9.894;2023-03-23T13:01:23;14.70;87.40
12819;DHT22;6474;53.474;9.894;2023-03-23T13:03:55;14.90;87.60
12819;DHT22;6474;53.474;9.894;2023-03-23T13:06:27;14.90;87.10
12819;DHT22;6474;53.474;9.894;2023-03-23T13:09:00;14.90;86.80
12819;DHT22;6474;53.474;9.894;2023-03-23T13:11:34;14.80;86.50
12819;DHT22;6474;53.474;9.894;2023-03-23T13:14:11;14.80;86.60
12819;DHT22;6474;53.474;9.894;2023-03-23T13:16:45;14.80;86.90
12819;DHT22;6474;53.474;9.894;2023-03-23T13:19:19;14.80;86.80
12819;DHT22;6474;53.474;9.894;2023-03-23T13:21:53;14.90;86.90
12819;DHT22;6474;53.474;9.894;2023-03-23T13:24:24;15.10;87.10
12819;DHT22;6474;53.474;9.894;2023-03-23T13:26:53;15.30;87.10
12819;DHT22;6474;53.474;9.894;2023-03-23T13:29:23;15.40;86.90
12819;DHT22;6474;53.474;9.894;2023-03-23T13:32:04;15.40;86.60
12819;DHT22;6474;53.474;9.894;2023-03-23T13:34:34;15.40;86.40
12819;DHT22;6474;53.474;9.894;2023-03-23T13:37:03;15.40;86.40
12819;DHT22;6474;53.474;9.894;2023-03-23T13:39:34;15.40;86.50
12819;DHT22;6474;53.474;9.894;2023-03-23T13:42:05;15.40;86.50
12819;DHT22;6474;53.474;9.894;2023-03-23T13:44:56;15.50;86.50
12819;DHT22;6474;53.474;9.894;2023-03-23T13:47:28;15.50;86.40
12819;DHT22;6474;53.474;9.894;2023-03-23T13:50:00;15.60;86.50
12819;DHT22;6474;53.474;9.894;2023-03-23T13:52:37;15.60;86.30
12819;DHT22;6474;53.474;9.894;2023-03-23T13:55:39;15.50;86.40
12819;DHT22;6474;53.474;9.894;2023-03-23T13:58:11;15.50;86.50
12819;DHT22;6474;53.474;9.894;2023-03-23T14:00:48;15.40;86.20
12819;DHT22;6474;53.474;9.894;2023-03-23T14:03:19;15.30;86.20
12819;DHT22;6474;53.474;9.894;2023-03-23T14:05:50;15.10;86.20
12819;DHT22;6474;53.474;9.894;2023-03-23T14:08:23;14.90;86.10
12819;DHT22;6474;53.474;9.894;2023-03-23T14:10:53;14.70;85.40
12819;DHT22;6474;53.474;9.894;2023-03-23T14:13:24;14.40;85.30
12819;DHT22;6474;53.474;9.894;2023-03-23T14:15:58;14.10;85.80
12819;DHT22;6474;53.474;9.894;2023-03-23T14:18:30;13.90;86.40
12819;DHT22;6474;53.474;9.894;2023-03-23T14:20:59;13.80;86.40
12819;DHT22;6474;53.474;9.894;2023-03-23T14:23:26;13.70;86.50
12819;DHT22;6474;53.474;9.894;2023-03-23T14:25:59;13.60;86.80
12819;DHT22;6474;53.474;9.894;2023-03-23T14:28:37;13.40;86.90
12819;DHT22;6474;53.474;9.894;2023-03-23T14:31:04;13.40;87.30
12819;DHT22;6474;53.474;9.894;2023-03-23T14:33:31;13.30;87.20
12819;DHT22;6474;53.474;9.894;2023-03-23T14:35:59;13.30;87.20
12819;DHT22;6474;53.474;9.894;2023-03-23T14:38:27;13.30;87.10
12819;DHT22;6474;53.474;9.894;2023-03-23T14:41:02;13.10;86.80
12819;DHT22;6474;53.474;9.894;2023-03-23T14:43:30;13.10;86.80
12819;DHT22;6474;53.474;9.894;2023-03-23T14:46:01;13.00;87.00
12819;DHT22;6474;53.474;9.894;2023-03-23T14:48:28;13.00;86.90
12819;DHT22;6474;53.474;9.894;2023-03-23T14:50:57;13.00;86.80
12819;DHT22;6474;53.474;9.894;2023-03-23T14:53:30;12.90;86.40
12819;DHT22;6474;53.474;9.894;2023-03-23T14:56:01;12.90;86.40
12819;DHT22;6474;53.474;9.894;2023-03-23T14:58:30;12.90;86.50
12819;DHT22;6474;53.474;9.894;2023-03-23T15:00:59;12.80;86.40
12819;DHT22;6474;53.474;9.894;2023-03-23T15:03:27;12.80;86.40
12819;DHT22;6474;53.474;9.894;2023-03-23T15:05:58;12.70;86.30
12819;DHT22;6474;53.474;9.894;2023-03-23T15:08:29;12.70;86.50
12819;DHT22;6474;53.474;9.894;2023-03-23T15:11:03;12.60;86.40
12819;DHT22;6474;53.474;9.894;2023-03-23T15:13:32;12.60;86.50
12819;DHT22;6474;53.474;9.894;2023-03-23T15:16:07;12.60;86.60
12819;DHT22;6474;53.474;9.894;2023-03-23T15:18:40;12.50;86.60
12819;DHT22;6474;53.474;9.894;2023-03-23T15:21:19;12.50;86.70
12819;DHT22;6474;53.474;9.894;2023-03-23T15:23:48;12.50;86.70
12819;DHT22;6474;53.474;9.894;2023-03-23T15:26:25;12.50;86.70
12819;DHT22;6474;53.474;9.894;2023-03-23T15:31:44;12.50;87.00
12819;DHT22;6474;53.474;9.894;2023-03-23T15:34:25;12.50;86.90
12819;DHT22;6474;53.474;9.894;2023-03-23T15:36:55;12.50;87.10
12819;DHT22;6474;53.474;9.894;2023-03-23T15:39:24;12.60;87.20
12819;DHT22;6474;53.474;9.894;2023-03-23T15:41:53;12.70;87.20
12819;DHT22;6474;53.474;9.894;2023-03-23T15:44:23;12.80;87.70
12819;DHT22;6474;53.474;9.894;2023-03-23T15:46:52;12.90;86.90
12819;DHT22;6474;53.474;9.894;2023-03-23T15:49:20;12.90;86.50
12819;DHT22;6474;53.474;9.894;2023-03-23T15:51:48;12.80;86.10
12819;DHT22;6474;53.474;9.894;2023-03-23T15:54:15;12.80;86.10
12819;DHT22;6474;53.474;9.894;2023-03-23T15:56:44;12.70;86.10
12819;DHT22;6474;53.474;9.894;2023-03-23T15:59:11;12.60;86.20
12819;DHT22;6474;53.474;9.894;2023-03-23T16:01:40;12.50;86.20
12819;DHT22;6474;53.474;9.894;2023-03-23T16:04:10;12.40;86.20
12819;DHT22;6474;53.474;9.894;2023-03-23T16:06:40;12.40;86.40
12819;DHT22;6474;53.474;9.894;2023-03-23T16:09:13;12.40;86.60
12819;DHT22;6474;53.474;9.894;2023-03-23T16:11:41;12.40;86.60
12819;DHT22;6474;53.474;9.894;2023-03-23T16:14:11;12.40;86.60
12819;DHT22;6474;53.474;9.894;2023-03-23T16:16:41;12.40;86.60